sensor_id;sensor_type;location;lat;lon;timestamp;P1;durP1;ratioP1;P2;durP2;ratioP2
8683;SDS011;4379;59.744;18.206;2024-01-07T00:02:06;1.77;;;1.67;;
8683;SDS011;4379;59.744;18.206;2024-01-07T00:04:34;1.90;;;1.80;;
8683;SDS011;4379;59.744;18.206;2024-01-07T00:07:01;1.70;;;1.60;;
8683;SDS011;4379;59.744;18.206;2024-01-07T00:09:28;1.60;;;1.50;;
8683;SDS011;4379;59.744;18.206;2024-01-07T00:11:56;1.83;;;1.73;;
8683;SDS011;4379;59.744;18.206;2024-01-07T00:14:23;3.33;;;1.53;;
8683;SDS011;4379;59.744;18.206;2024-01-07T00:16:50;1.83;;;1.73;;
8683;SDS011;4379;59.744;18.206;2024-01-07T00:19:17;2.20;;;1.57;;
8683;SDS011;4379;59.744;18.206;2024-01-07T00:21:44;1.70;;;1.60;;
8683;SDS011;4379;59.744;18.206;2024-01-07T00:24:11;2.20;;;2.00;;
8683;SDS011;4379;59.744;18.206;2024-01-07T00:26:39;2.33;;;2.03;;
8683;SDS011;4379;59.744;18.206;2024-01-07T00:29:06;2.00;;;1.67;;
8683;SDS011;4379;59.744;18.206;2024-01-07T00:31:33;2.20;;;2.07;;
8683;SDS011;4379;59.744;18.206;2024-01-07T00:34:00;2.27;;;2.07;;
8683;SDS011;4379;59.744;18.206;2024-01-07T00:36:28;1.57;;;1.43;;
8683;SDS011;4379;59.744;18.206;2024-01-07T00:38:55;1.67;;;1.57;;
8683;SDS011;4379;59.744;18.206;2024-01-07T00:41:22;2.00;;;1.90;;
8683;SDS011;4379;59.744;18.206;2024-01-07T00:43:53;2.27;;;2.07;;
8683;SDS011;4379;59.744;18.206;2024-01-07T00:46:20;1.80;;;1.70;;
8683;SDS011;4379;59.744;18.206;2024-01-07T00:48:48;1.87;;;1.40;;
8683;SDS011;4379;59.744;18.206;2024-01-07T00:51:15;2.43;;;2.23;;
8683;SDS011;4379;59.744;18.206;2024-01-07T00:53:42;4.67;;;3.53;;
8683;SDS011;4379;59.744;18.206;2024-01-07T00:56:10;5.30;;;3.63;;
8683;SDS011;4379;59.744;18.206;2024-01-07T00:58:37;4.30;;;3.90;;
8683;SDS011;4379;59.744;18.206;2024-01-07T01:01:05;5.57;;;4.00;;
8683;SDS011;4379;59.744;18.206;2024-01-07T01:03:33;7.20;;;5.20;;
8683;SDS011;4379;59.744;18.206;2024-01-07T01:06:03;4.63;;;3.90;;
8683;SDS011;4379;59.744;18.206;2024-01-07T01:08:31;3.83;;;2.90;;
8683;SDS011;4379;59.744;18.206;2024-01-07T01:10:58;3.43;;;2.63;;
8683;SDS011;4379;59.744;18.206;2024-01-07T01:13:25;3.43;;;2.50;;
8683;SDS011;4379;59.744;18.206;2024-01-07T01:15:52;3.30;;;2.23;;
8683;SDS011;4379;59.744;18.206;2024-01-07T01:18:21;2.93;;;2.53;;
8683;SDS011;4379;59.744;18.206;2024-01-07T01:20:49;2.57;;;2.30;;
8683;SDS011;4379;59.744;18.206;2024-01-07T01:23:16;3.30;;;3.00;;
8683;SDS011;4379;59.744;18.206;2024-01-07T01:25:43;5.30;;;2.73;;
8683;SDS011;4379;59.744;18.206;2024-01-07T01:28:10;3.20;;;2.60;;
8683;SDS011;4379;59.744;18.206;2024-01-07T01:30:39;3.03;;;2.23;;
8683;SDS011;4379;59.744;18.206;2024-01-07T01:33:07;2.90;;;2.63;;
8683;SDS011;4379;59.744;18.206;2024-01-07T01:35:34;3.30;;;3.00;;
8683;SDS011;4379;59.744;18.206;2024-01-07T01:38:03;3.50;;;2.93;;
8683;SDS011;4379;59.744;18.206;2024-01-07T01:40:30;3.33;;;2.93;;
8683;SDS011;4379;59.744;18.206;2024-01-07T01:42:58;3.10;;;2.80;;
8683;SDS011;4379;59.744;18.206;2024-01-07T01:45:25;3.00;;;2.57;;
8683;SDS011;4379;59.744;18.206;2024-01-07T01:47:52;2.90;;;2.60;;
8683;SDS011;4379;59.744;18.206;2024-01-07T01:50:19;2.57;;;2.37;;
8683;SDS011;4379;59.744;18.206;2024-01-07T01:52:47;2.87;;;2.67;;
8683;SDS011;4379;59.744;18.206;2024-01-07T01:55:15;2.60;;;2.40;;
8683;SDS011;4379;59.744;18.206;2024-01-07T01:57:42;3.57;;;3.07;;
8683;SDS011;4379;59.744;18.206;2024-01-07T02:00:12;2.90;;;2.70;;
8683;SDS011;4379;59.744;18.206;2024-01-07T02:02:39;2.93;;;2.40;;
8683;SDS011;4379;59.744;18.206;2024-01-07T02:05:07;2.37;;;2.17;;
8683;SDS011;4379;59.744;18.206;2024-01-07T02:07:34;2.90;;;2.60;;
8683;SDS011;4379;59.744;18.206;2024-01-07T02:10:01;3.87;;;2.63;;
8683;SDS011;4379;59.744;18.206;2024-01-07T02:12:29;2.63;;;2.40;;
8683;SDS011;4379;59.744;18.206;2024-01-07T02:14:57;2.20;;;2.10;;
8683;SDS011;4379;59.744;18.206;2024-01-07T02:17:24;2.20;;;1.93;;
8683;SDS011;4379;59.744;18.206;2024-01-07T02:19:51;3.00;;;2.60;;
8683;SDS011;4379;59.744;18.206;2024-01-07T02:22:19;2.17;;;2.07;;
8683;SDS011;4379;59.744;18.206;2024-01-07T02:24:46;2.33;;;2.10;;
8683;SDS011;4379;59.744;18.206;2024-01-07T02:27:13;2.40;;;2.20;;
8683;SDS011;4379;59.744;18.206;2024-01-07T02:29:40;2.23;;;1.93;;
8683;SDS011;4379;59.744;18.206;2024-01-07T02:32:07;2.73;;;2.53;;
8683;SDS011;4379;59.744;18.206;2024-01-07T02:34:34;4.67;;;2.70;;
8683;SDS011;4379;59.744;18.206;2024-01-07T02:37:03;3.83;;;3.37;;
8683;SDS011;4379;59.744;18.206;2024-01-07T02:39:33;4.33;;;3.43;;
8683;SDS011;4379;59.744;18.206;2024-01-07T02:42:02;3.17;;;2.97;;
8683;SDS011;4379;59.744;18.206;2024-01-07T02:44:29;3.67;;;3.37;;
8683;SDS011;4379;59.744;18.206;2024-01-07T02:46:56;3.13;;;2.50;;
8683;SDS011;4379;59.744;18.206;2024-01-07T02:49:23;3.40;;;3.10;;
8683;SDS011;4379;59.744;18.206;2024-01-07T02:51:51;3.60;;;3.07;;
8683;SDS011;4379;59.744;18.206;2024-01-07T02:54:18;3.23;;;2.93;;
8683;SDS011;4379;59.744;18.206;2024-01-07T02:56:45;3.60;;;3.03;;
8683;SDS011;4379;59.744;18.206;2024-01-07T02:59:12;3.10;;;2.90;;
8683;SDS011;4379;59.744;18.206;2024-01-07T03:01:39;2.43;;;2.30;;
8683;SDS011;4379;59.744;18.206;2024-01-07T03:04:09;2.90;;;2.60;;
8683;SDS011;4379;59.744;18.206;2024-01-07T03:06:37;2.90;;;2.47;;
8683;SDS011;4379;59.744;18.206;2024-01-07T03:09:05;2.53;;;2.27;;
8683;SDS011;4379;59.744;18.206;2024-01-07T03:11:38;2.40;;;2.20;;
8683;SDS011;4379;59.744;18.206;2024-01-07T03:14:09;2.00;;;1.90;;
8683;SDS011;4379;59.744;18.206;2024-01-07T03:16:36;3.83;;;2.67;;
8683;SDS011;4379;59.744;18.206;2024-01-07T03:19:04;2.60;;;2.40;;
8683;SDS011;4379;59.744;18.206;2024-01-07T03:21:32;3.73;;;3.13;;
8683;SDS011;4379;59.744;18.206;2024-01-07T03:24:01;4.40;;;4.00;;
8683;SDS011;4379;59.744;18.206;2024-01-07T03:26:29;7.47;;;3.83;;
8683;SDS011;4379;59.744;18.206;2024-01-07T03:28:59;4.43;;;4.07;;
8683;SDS011;4379;59.744;18.206;2024-01-07T03:31:28;5.27;;;4.77;;
8683;SDS011;4379;59.744;18.206;2024-01-07T03:33:56;4.20;;;3.63;;
8683;SDS011;4379;59.744;18.206;2024-01-07T03:36:24;4.43;;;3.90;;
8683;SDS011;4379;59.744;18.206;2024-01-07T03:38:51;4.77;;;4.20;;
8683;SDS011;4379;59.744;18.206;2024-01-07T03:41:20;5.63;;;3.87;;
8683;SDS011;4379;59.744;18.206;2024-01-07T03:43:48;3.50;;;3.20;;
8683;SDS011;4379;59.744;18.206;2024-01-07T03:46:16;6.13;;;3.67;;
8683;SDS011;4379;59.744;18.206;2024-01-07T03:48:44;3.20;;;3.00;;
8683;SDS011;4379;59.744;18.206;2024-01-07T03:51:12;3.37;;;3.00;;
8683;SDS011;4379;59.744;18.206;2024-01-07T03:53:39;3.17;;;2.87;;
8683;SDS011;4379;59.744;18.206;2024-01-07T03:56:06;2.90;;;2.60;;
8683;SDS011;4379;59.744;18.206;2024-01-07T03:58:33;3.30;;;3.10;;
8683;SDS011;4379;59.744;18.206;2024-01-07T04:01:01;2.80;;;2.60;;
8683;SDS011;4379;59.744;18.206;2024-01-07T04:03:28;3.07;;;2.77;;
8683;SDS011;4379;59.744;18.206;2024-01-07T04:05:56;4.27;;;3.40;;
8683;SDS011;4379;59.744;18.206;2024-01-07T04:08:23;3.63;;;2.97;;
8683;SDS011;4379;59.744;18.206;2024-01-07T04:10:51;3.13;;;2.83;;
8683;SDS011;4379;59.744;18.206;2024-01-07T04:13:19;3.40;;;2.83;;
8683;SDS011;4379;59.744;18.206;2024-01-07T04:15:46;3.07;;;2.83;;
8683;SDS011;4379;59.744;18.206;2024-01-07T04:18:14;3.10;;;2.90;;
8683;SDS011;4379;59.744;18.206;2024-01-07T04:20:41;3.30;;;3.00;;
8683;SDS011;4379;59.744;18.206;2024-01-07T04:23:08;3.13;;;2.83;;
8683;SDS011;4379;59.744;18.206;2024-01-07T04:25:35;3.07;;;2.83;;
8683;SDS011;4379;59.744;18.206;2024-01-07T04:28:02;3.10;;;2.87;;
8683;SDS011;4379;59.744;18.206;2024-01-07T04:30:30;3.07;;;2.87;;
8683;SDS011;4379;59.744;18.206;2024-01-07T04:32:57;3.07;;;2.50;;
8683;SDS011;4379;59.744;18.206;2024-01-07T04:35:24;2.77;;;2.57;;
8683;SDS011;4379;59.744;18.206;2024-01-07T04:37:52;3.20;;;2.90;;
8683;SDS011;4379;59.744;18.206;2024-01-07T04:40:25;4.33;;;3.57;;
8683;SDS011;4379;59.744;18.206;2024-01-07T04:42:55;2.70;;;2.50;;
8683;SDS011;4379;59.744;18.206;2024-01-07T04:45:22;2.83;;;2.43;;
8683;SDS011;4379;59.744;18.206;2024-01-07T04:47:49;2.70;;;2.50;;
8683;SDS011;4379;59.744;18.206;2024-01-07T04:50:17;2.40;;;2.20;;
8683;SDS011;4379;59.744;18.206;2024-01-07T04:52:46;2.50;;;2.30;;
8683;SDS011;4379;59.744;18.206;2024-01-07T04:55:14;2.40;;;2.20;;
8683;SDS011;4379;59.744;18.206;2024-01-07T04:57:41;2.20;;;2.03;;
8683;SDS011;4379;59.744;18.206;2024-01-07T05:00:09;2.50;;;2.30;;
8683;SDS011;4379;59.744;18.206;2024-01-07T05:02:37;2.43;;;1.83;;
8683;SDS011;4379;59.744;18.206;2024-01-07T05:05:04;1.80;;;1.70;;
8683;SDS011;4379;59.744;18.206;2024-01-07T05:07:31;2.03;;;1.93;;
8683;SDS011;4379;59.744;18.206;2024-01-07T05:09:58;1.77;;;1.67;;
8683;SDS011;4379;59.744;18.206;2024-01-07T05:12:25;1.90;;;1.80;;
8683;SDS011;4379;59.744;18.206;2024-01-07T05:14:53;2.00;;;1.80;;
8683;SDS011;4379;59.744;18.206;2024-01-07T05:17:20;1.90;;;1.80;;
8683;SDS011;4379;59.744;18.206;2024-01-07T05:19:47;2.47;;;2.27;;
8683;SDS011;4379;59.744;18.206;2024-01-07T05:22:15;1.83;;;1.73;;
8683;SDS011;4379;59.744;18.206;2024-01-07T05:24:42;1.90;;;1.80;;
8683;SDS011;4379;59.744;18.206;2024-01-07T05:27:10;2.63;;;2.37;;
8683;SDS011;4379;59.744;18.206;2024-01-07T05:29:37;2.77;;;2.57;;
8683;SDS011;4379;59.744;18.206;2024-01-07T05:32:04;2.93;;;2.70;;
8683;SDS011;4379;59.744;18.206;2024-01-07T05:34:33;3.80;;;3.50;;
8683;SDS011;4379;59.744;18.206;2024-01-07T05:37:01;4.07;;;3.70;;
8683;SDS011;4379;59.744;18.206;2024-01-07T05:39:28;4.20;;;3.83;;
8683;SDS011;4379;59.744;18.206;2024-01-07T05:41:56;5.37;;;4.87;;
8683;SDS011;4379;59.744;18.206;2024-01-07T05:44:23;6.57;;;6.07;;
8683;SDS011;4379;59.744;18.206;2024-01-07T05:46:55;6.37;;;5.73;;
8683;SDS011;4379;59.744;18.206;2024-01-07T05:49:22;4.77;;;4.37;;
8683;SDS011;4379;59.744;18.206;2024-01-07T05:51:49;5.10;;;4.57;;
8683;SDS011;4379;59.744;18.206;2024-01-07T05:54:16;5.17;;;4.67;;
8683;SDS011;4379;59.744;18.206;2024-01-07T05:56:43;7.50;;;5.10;;
8683;SDS011;4379;59.744;18.206;2024-01-07T05:59:10;8.40;;;4.90;;
8683;SDS011;4379;59.744;18.206;2024-01-07T06:01:37;4.93;;;4.53;;
8683;SDS011;4379;59.744;18.206;2024-01-07T06:04:05;5.17;;;4.27;;
8683;SDS011;4379;59.744;18.206;2024-01-07T06:06:32;5.10;;;4.13;;
8683;SDS011;4379;59.744;18.206;2024-01-07T06:09:01;7.03;;;4.40;;
8683;SDS011;4379;59.744;18.206;2024-01-07T06:11:30;5.90;;;4.73;;
8683;SDS011;4379;59.744;18.206;2024-01-07T06:14:00;5.33;;;4.43;;
8683;SDS011;4379;59.744;18.206;2024-01-07T06:16:27;4.93;;;4.40;;
8683;SDS011;4379;59.744;18.206;2024-01-07T06:18:54;4.97;;;4.23;;
8683;SDS011;4379;59.744;18.206;2024-01-07T06:21:21;6.57;;;3.67;;
8683;SDS011;4379;59.744;18.206;2024-01-07T06:23:48;4.03;;;3.70;;
8683;SDS011;4379;59.744;18.206;2024-01-07T06:26:15;4.37;;;3.97;;
8683;SDS011;4379;59.744;18.206;2024-01-07T06:28:43;8.50;;;4.27;;
8683;SDS011;4379;59.744;18.206;2024-01-07T06:31:10;4.47;;;3.90;;
8683;SDS011;4379;59.744;18.206;2024-01-07T06:33:38;5.27;;;4.40;;
8683;SDS011;4379;59.744;18.206;2024-01-07T06:36:05;3.90;;;3.60;;
8683;SDS011;4379;59.744;18.206;2024-01-07T06:38:33;6.07;;;3.97;;
8683;SDS011;4379;59.744;18.206;2024-01-07T06:41:00;5.03;;;4.07;;
8683;SDS011;4379;59.744;18.206;2024-01-07T06:43:30;5.23;;;3.80;;
8683;SDS011;4379;59.744;18.206;2024-01-07T06:45:58;4.80;;;4.27;;
8683;SDS011;4379;59.744;18.206;2024-01-07T06:48:25;4.70;;;4.30;;
8683;SDS011;4379;59.744;18.206;2024-01-07T06:50:53;4.97;;;4.47;;
8683;SDS011;4379;59.744;18.206;2024-01-07T06:53:20;5.10;;;4.23;;
8683;SDS011;4379;59.744;18.206;2024-01-07T06:55:48;5.77;;;4.30;;
8683;SDS011;4379;59.744;18.206;2024-01-07T06:58:15;4.73;;;3.63;;
8683;SDS011;4379;59.744;18.206;2024-01-07T07:00:42;4.60;;;4.20;;
8683;SDS011;4379;59.744;18.206;2024-01-07T07:03:09;4.23;;;3.83;;
8683;SDS011;4379;59.744;18.206;2024-01-07T07:05:37;4.53;;;4.00;;
8683;SDS011;4379;59.744;18.206;2024-01-07T07:08:05;5.23;;;4.70;;
8683;SDS011;4379;59.744;18.206;2024-01-07T07:10:32;5.83;;;4.60;;
8683;SDS011;4379;59.744;18.206;2024-01-07T07:13:00;5.13;;;4.63;;
8683;SDS011;4379;59.744;18.206;2024-01-07T07:15:27;4.67;;;4.27;;
8683;SDS011;4379;59.744;18.206;2024-01-07T07:17:55;4.97;;;3.93;;
8683;SDS011;4379;59.744;18.206;2024-01-07T07:20:24;4.87;;;4.30;;
8683;SDS011;4379;59.744;18.206;2024-01-07T07:22:51;8.47;;;4.80;;
8683;SDS011;4379;59.744;18.206;2024-01-07T07:25:18;7.53;;;5.67;;
8683;SDS011;4379;59.744;18.206;2024-01-07T07:27:45;6.57;;;4.93;;
8683;SDS011;4379;59.744;18.206;2024-01-07T07:30:12;7.13;;;4.67;;
8683;SDS011;4379;59.744;18.206;2024-01-07T07:32:40;7.10;;;4.67;;
8683;SDS011;4379;59.744;18.206;2024-01-07T07:35:11;5.70;;;5.00;;
8683;SDS011;4379;59.744;18.206;2024-01-07T07:37:38;4.53;;;3.80;;
8683;SDS011;4379;59.744;18.206;2024-01-07T07:40:06;5.70;;;4.53;;
8683;SDS011;4379;59.744;18.206;2024-01-07T07:42:33;4.33;;;3.90;;
8683;SDS011;4379;59.744;18.206;2024-01-07T07:45:00;7.07;;;4.03;;
8683;SDS011;4379;59.744;18.206;2024-01-07T07:47:29;7.07;;;5.13;;
8683;SDS011;4379;59.744;18.206;2024-01-07T07:49:56;7.87;;;5.13;;
8683;SDS011;4379;59.744;18.206;2024-01-07T07:52:24;5.87;;;4.90;;
8683;SDS011;4379;59.744;18.206;2024-01-07T07:54:52;8.53;;;5.10;;
8683;SDS011;4379;59.744;18.206;2024-01-07T07:57:20;5.57;;;4.67;;
8683;SDS011;4379;59.744;18.206;2024-01-07T07:59:48;5.53;;;4.70;;
8683;SDS011;4379;59.744;18.206;2024-01-07T08:02:15;6.53;;;4.67;;
8683;SDS011;4379;59.744;18.206;2024-01-07T08:04:43;6.10;;;5.50;;
8683;SDS011;4379;59.744;18.206;2024-01-07T08:07:10;8.13;;;4.73;;
8683;SDS011;4379;59.744;18.206;2024-01-07T08:09:37;4.83;;;4.40;;
8683;SDS011;4379;59.744;18.206;2024-01-07T08:12:05;5.20;;;4.37;;
8683;SDS011;4379;59.744;18.206;2024-01-07T08:14:33;5.50;;;4.90;;
8683;SDS011;4379;59.744;18.206;2024-01-07T08:17:00;7.20;;;4.97;;
8683;SDS011;4379;59.744;18.206;2024-01-07T08:19:27;6.77;;;5.30;;
8683;SDS011;4379;59.744;18.206;2024-01-07T08:21:55;6.13;;;5.00;;
8683;SDS011;4379;59.744;18.206;2024-01-07T08:24:23;6.50;;;5.30;;
8683;SDS011;4379;59.744;18.206;2024-01-07T08:26:51;7.10;;;5.20;;
8683;SDS011;4379;59.744;18.206;2024-01-07T08:29:21;5.67;;;4.97;;
8683;SDS011;4379;59.744;18.206;2024-01-07T08:31:48;6.87;;;5.17;;
8683;SDS011;4379;59.744;18.206;2024-01-07T08:34:15;8.00;;;5.23;;
8683;SDS011;4379;59.744;18.206;2024-01-07T08:36:42;5.80;;;5.13;;
8683;SDS011;4379;59.744;18.206;2024-01-07T08:39:09;6.83;;;5.40;;
8683;SDS011;4379;59.744;18.206;2024-01-07T08:41:37;5.23;;;4.20;;
8683;SDS011;4379;59.744;18.206;2024-01-07T08:44:04;4.43;;;4.03;;
8683;SDS011;4379;59.744;18.206;2024-01-07T08:46:34;5.87;;;5.27;;
8683;SDS011;4379;59.744;18.206;2024-01-07T08:49:01;7.03;;;4.50;;
8683;SDS011;4379;59.744;18.206;2024-01-07T08:51:28;6.50;;;5.50;;
8683;SDS011;4379;59.744;18.206;2024-01-07T08:53:56;6.37;;;5.10;;
8683;SDS011;4379;59.744;18.206;2024-01-07T08:56:24;7.23;;;4.93;;
8683;SDS011;4379;59.744;18.206;2024-01-07T08:58:52;5.53;;;4.40;;
8683;SDS011;4379;59.744;18.206;2024-01-07T09:01:19;5.50;;;4.33;;
8683;SDS011;4379;59.744;18.206;2024-01-07T09:03:46;5.00;;;4.50;;
8683;SDS011;4379;59.744;18.206;2024-01-07T09:06:16;6.03;;;4.60;;
8683;SDS011;4379;59.744;18.206;2024-01-07T09:08:45;5.37;;;4.57;;
8683;SDS011;4379;59.744;18.206;2024-01-07T09:11:12;5.77;;;4.20;;
8683;SDS011;4379;59.744;18.206;2024-01-07T09:13:39;4.50;;;4.10;;
8683;SDS011;4379;59.744;18.206;2024-01-07T09:16:09;5.00;;;4.43;;
8683;SDS011;4379;59.744;18.206;2024-01-07T09:18:41;6.00;;;4.57;;
8683;SDS011;4379;59.744;18.206;2024-01-07T09:21:10;5.10;;;4.63;;
8683;SDS011;4379;59.744;18.206;2024-01-07T09:23:38;9.10;;;5.67;;
8683;SDS011;4379;59.744;18.206;2024-01-07T09:26:05;8.03;;;6.00;;
8683;SDS011;4379;59.744;18.206;2024-01-07T09:28:32;5.60;;;4.83;;
8683;SDS011;4379;59.744;18.206;2024-01-07T09:31:03;6.53;;;5.40;;
8683;SDS011;4379;59.744;18.206;2024-01-07T09:33:30;6.20;;;5.10;;
8683;SDS011;4379;59.744;18.206;2024-01-07T09:35:58;7.40;;;5.17;;
8683;SDS011;4379;59.744;18.206;2024-01-07T09:38:36;7.13;;;4.87;;
8683;SDS011;4379;59.744;18.206;2024-01-07T09:41:03;5.57;;;5.07;;
8683;SDS011;4379;59.744;18.206;2024-01-07T09:43:31;5.73;;;4.97;;
8683;SDS011;4379;59.744;18.206;2024-01-07T09:46:02;7.13;;;4.87;;
8683;SDS011;4379;59.744;18.206;2024-01-07T09:48:32;5.40;;;4.90;;
8683;SDS011;4379;59.744;18.206;2024-01-07T09:51:02;6.67;;;5.80;;
8683;SDS011;4379;59.744;18.206;2024-01-07T09:53:31;6.70;;;5.70;;
8683;SDS011;4379;59.744;18.206;2024-01-07T09:56:11;5.73;;;5.23;;
8683;SDS011;4379;59.744;18.206;2024-01-07T09:58:46;6.83;;;6.13;;
8683;SDS011;4379;59.744;18.206;2024-01-07T10:01:19;6.00;;;5.27;;
8683;SDS011;4379;59.744;18.206;2024-01-07T10:03:47;5.67;;;4.87;;
8683;SDS011;4379;59.744;18.206;2024-01-07T10:06:17;6.63;;;4.87;;
8683;SDS011;4379;59.744;18.206;2024-01-07T10:08:46;4.87;;;4.37;;
8683;SDS011;4379;59.744;18.206;2024-01-07T10:11:13;4.87;;;4.47;;
8683;SDS011;4379;59.744;18.206;2024-01-07T10:13:41;4.83;;;4.17;;
8683;SDS011;4379;59.744;18.206;2024-01-07T10:16:08;5.10;;;4.60;;
8683;SDS011;4379;59.744;18.206;2024-01-07T10:18:36;4.60;;;4.13;;
8683;SDS011;4379;59.744;18.206;2024-01-07T10:21:05;5.00;;;4.60;;
8683;SDS011;4379;59.744;18.206;2024-01-07T10:23:33;4.97;;;4.47;;
8683;SDS011;4379;59.744;18.206;2024-01-07T10:26:00;4.87;;;4.47;;
8683;SDS011;4379;59.744;18.206;2024-01-07T10:28:40;4.27;;;3.87;;
8683;SDS011;4379;59.744;18.206;2024-01-07T10:31:09;4.80;;;4.33;;
8683;SDS011;4379;59.744;18.206;2024-01-07T10:33:37;5.33;;;4.47;;
8683;SDS011;4379;59.744;18.206;2024-01-07T10:36:08;4.90;;;4.40;;
8683;SDS011;4379;59.744;18.206;2024-01-07T10:38:36;5.10;;;4.60;;
8683;SDS011;4379;59.744;18.206;2024-01-07T10:41:11;4.90;;;4.50;;
8683;SDS011;4379;59.744;18.206;2024-01-07T10:43:39;5.30;;;4.80;;
8683;SDS011;4379;59.744;18.206;2024-01-07T10:46:09;4.97;;;4.50;;
8683;SDS011;4379;59.744;18.206;2024-01-07T10:48:37;4.97;;;4.50;;
8683;SDS011;4379;59.744;18.206;2024-01-07T10:51:09;5.60;;;5.10;;
8683;SDS011;4379;59.744;18.206;2024-01-07T10:53:38;6.43;;;4.87;;
8683;SDS011;4379;59.744;18.206;2024-01-07T10:56:09;5.50;;;5.00;;
8683;SDS011;4379;59.744;18.206;2024-01-07T10:58:39;6.53;;;5.60;;
8683;SDS011;4379;59.744;18.206;2024-01-07T11:01:07;6.97;;;5.73;;
8683;SDS011;4379;59.744;18.206;2024-01-07T11:09:16;6.83;;;5.60;;
8683;SDS011;4379;59.744;18.206;2024-01-07T11:11:45;7.00;;;5.50;;
8683;SDS011;4379;59.744;18.206;2024-01-07T11:17:09;7.00;;;5.57;;
8683;SDS011;4379;59.744;18.206;2024-01-07T11:19:36;6.50;;;5.43;;
8683;SDS011;4379;59.744;18.206;2024-01-07T11:22:23;6.73;;;5.00;;
8683;SDS011;4379;59.744;18.206;2024-01-07T11:24:57;6.97;;;5.53;;
8683;SDS011;4379;59.744;18.206;2024-01-07T11:27:28;5.93;;;5.30;;
8683;SDS011;4379;59.744;18.206;2024-01-07T11:30:06;5.87;;;5.27;;
8683;SDS011;4379;59.744;18.206;2024-01-07T11:32:46;5.73;;;5.13;;
8683;SDS011;4379;59.744;18.206;2024-01-07T11:38:27;10.53;;;5.80;;
8683;SDS011;4379;59.744;18.206;2024-01-07T11:40:54;5.83;;;5.23;;
8683;SDS011;4379;59.744;18.206;2024-01-07T11:43:23;5.97;;;4.73;;
8683;SDS011;4379;59.744;18.206;2024-01-07T11:45:50;7.50;;;5.53;;
8683;SDS011;4379;59.744;18.206;2024-01-07T11:48:18;5.43;;;4.77;;
8683;SDS011;4379;59.744;18.206;2024-01-07T11:50:46;6.17;;;5.53;;
8683;SDS011;4379;59.744;18.206;2024-01-07T11:53:20;8.20;;;4.90;;
8683;SDS011;4379;59.744;18.206;2024-01-07T11:55:47;5.43;;;4.93;;
8683;SDS011;4379;59.744;18.206;2024-01-07T11:58:15;6.63;;;5.43;;
8683;SDS011;4379;59.744;18.206;2024-01-07T12:00:42;7.67;;;5.90;;
8683;SDS011;4379;59.744;18.206;2024-01-07T12:03:09;6.97;;;5.77;;
8683;SDS011;4379;59.744;18.206;2024-01-07T12:05:40;8.07;;;6.10;;
8683;SDS011;4379;59.744;18.206;2024-01-07T12:08:10;8.03;;;6.00;;
8683;SDS011;4379;59.744;18.206;2024-01-07T12:10:37;9.80;;;6.37;;
8683;SDS011;4379;59.744;18.206;2024-01-07T12:13:04;8.70;;;6.17;;
8683;SDS011;4379;59.744;18.206;2024-01-07T12:15:32;8.30;;;5.70;;
8683;SDS011;4379;59.744;18.206;2024-01-07T12:18:00;8.80;;;5.77;;
8683;SDS011;4379;59.744;18.206;2024-01-07T12:20:28;8.30;;;5.50;;
8683;SDS011;4379;59.744;18.206;2024-01-07T12:22:56;7.07;;;5.70;;
8683;SDS011;4379;59.744;18.206;2024-01-07T12:25:24;6.37;;;5.37;;
8683;SDS011;4379;59.744;18.206;2024-01-07T12:27:51;6.67;;;5.97;;
8683;SDS011;4379;59.744;18.206;2024-01-07T12:30:23;9.47;;;6.17;;
8683;SDS011;4379;59.744;18.206;2024-01-07T12:32:51;6.43;;;5.67;;
8683;SDS011;4379;59.744;18.206;2024-01-07T12:35:19;9.07;;;6.17;;
8683;SDS011;4379;59.744;18.206;2024-01-07T12:37:47;6.13;;;5.43;;
8683;SDS011;4379;59.744;18.206;2024-01-07T12:40:15;7.20;;;6.03;;
8683;SDS011;4379;59.744;18.206;2024-01-07T12:42:42;7.47;;;5.60;;
8683;SDS011;4379;59.744;18.206;2024-01-07T12:45:13;7.40;;;6.03;;
8683;SDS011;4379;59.744;18.206;2024-01-07T12:47:42;8.30;;;7.20;;
8683;SDS011;4379;59.744;18.206;2024-01-07T12:50:10;8.23;;;7.00;;
8683;SDS011;4379;59.744;18.206;2024-01-07T12:52:37;8.87;;;6.90;;
8683;SDS011;4379;59.744;18.206;2024-01-07T12:55:06;11.63;;;9.00;;
8683;SDS011;4379;59.744;18.206;2024-01-07T12:57:33;11.50;;;7.93;;
8683;SDS011;4379;59.744;18.206;2024-01-07T13:00:03;9.13;;;8.23;;
8683;SDS011;4379;59.744;18.206;2024-01-07T13:02:33;8.67;;;7.80;;
8683;SDS011;4379;59.744;18.206;2024-01-07T13:05:01;9.03;;;7.33;;
8683;SDS011;4379;59.744;18.206;2024-01-07T13:07:30;9.07;;;6.97;;
8683;SDS011;4379;59.744;18.206;2024-01-07T13:09:57;10.00;;;7.53;;
8683;SDS011;4379;59.744;18.206;2024-01-07T13:12:25;7.10;;;6.40;;
8683;SDS011;4379;59.744;18.206;2024-01-07T13:15:12;6.93;;;6.23;;
8683;SDS011;4379;59.744;18.206;2024-01-07T13:17:43;6.30;;;5.37;;
8683;SDS011;4379;59.744;18.206;2024-01-07T13:20:10;6.57;;;5.90;;
8683;SDS011;4379;59.744;18.206;2024-01-07T13:22:38;6.60;;;5.23;;
8683;SDS011;4379;59.744;18.206;2024-01-07T13:25:05;7.13;;;5.00;;
8683;SDS011;4379;59.744;18.206;2024-01-07T13:27:33;6.13;;;5.00;;
8683;SDS011;4379;59.744;18.206;2024-01-07T13:30:03;5.03;;;4.53;;
8683;SDS011;4379;59.744;18.206;2024-01-07T13:32:31;6.00;;;5.40;;
8683;SDS011;4379;59.744;18.206;2024-01-07T13:35:03;6.53;;;5.70;;
8683;SDS011;4379;59.744;18.206;2024-01-07T13:37:31;7.03;;;5.77;;
8683;SDS011;4379;59.744;18.206;2024-01-07T13:39:58;7.03;;;5.13;;
8683;SDS011;4379;59.744;18.206;2024-01-07T13:42:25;5.40;;;4.87;;
8683;SDS011;4379;59.744;18.206;2024-01-07T13:44:53;6.03;;;5.43;;
8683;SDS011;4379;59.744;18.206;2024-01-07T13:47:20;5.63;;;5.10;;
8683;SDS011;4379;59.744;18.206;2024-01-07T13:49:47;5.33;;;4.87;;
8683;SDS011;4379;59.744;18.206;2024-01-07T13:52:15;5.33;;;4.83;;
8683;SDS011;4379;59.744;18.206;2024-01-07T13:54:42;5.83;;;5.17;;
8683;SDS011;4379;59.744;18.206;2024-01-07T13:57:10;6.40;;;4.87;;
8683;SDS011;4379;59.744;18.206;2024-01-07T13:59:40;5.40;;;4.80;;
8683;SDS011;4379;59.744;18.206;2024-01-07T14:02:10;5.87;;;5.03;;
8683;SDS011;4379;59.744;18.206;2024-01-07T14:04:37;6.63;;;5.40;;
8683;SDS011;4379;59.744;18.206;2024-01-07T14:07:04;6.60;;;5.33;;
8683;SDS011;4379;59.744;18.206;2024-01-07T14:09:31;5.73;;;5.23;;
8683;SDS011;4379;59.744;18.206;2024-01-07T14:11:59;6.30;;;5.03;;
8683;SDS011;4379;59.744;18.206;2024-01-07T14:14:26;5.57;;;4.97;;
8683;SDS011;4379;59.744;18.206;2024-01-07T14:16:53;5.47;;;4.77;;
8683;SDS011;4379;59.744;18.206;2024-01-07T14:19:20;6.23;;;5.63;;
8683;SDS011;4379;59.744;18.206;2024-01-07T14:21:48;6.13;;;5.50;;
8683;SDS011;4379;59.744;18.206;2024-01-07T14:24:18;4.77;;;4.37;;
8683;SDS011;4379;59.744;18.206;2024-01-07T14:26:45;4.67;;;4.33;;
8683;SDS011;4379;59.744;18.206;2024-01-07T14:29:15;5.67;;;5.03;;
8683;SDS011;4379;59.744;18.206;2024-01-07T14:31:44;5.70;;;4.93;;
8683;SDS011;4379;59.744;18.206;2024-01-07T14:34:12;6.37;;;5.53;;
8683;SDS011;4379;59.744;18.206;2024-01-07T14:36:40;6.17;;;5.63;;
8683;SDS011;4379;59.744;18.206;2024-01-07T14:39:10;6.33;;;5.73;;
8683;SDS011;4379;59.744;18.206;2024-01-07T14:41:40;7.17;;;5.47;;
8683;SDS011;4379;59.744;18.206;2024-01-07T14:44:07;6.33;;;5.23;;
8683;SDS011;4379;59.744;18.206;2024-01-07T14:46:39;6.70;;;5.10;;
8683;SDS011;4379;59.744;18.206;2024-01-07T14:49:06;6.13;;;5.53;;
8683;SDS011;4379;59.744;18.206;2024-01-07T14:51:34;6.90;;;4.97;;
8683;SDS011;4379;59.744;18.206;2024-01-07T14:54:01;6.23;;;5.03;;
8683;SDS011;4379;59.744;18.206;2024-01-07T14:56:29;5.43;;;4.93;;
8683;SDS011;4379;59.744;18.206;2024-01-07T14:58:56;5.77;;;4.83;;
8683;SDS011;4379;59.744;18.206;2024-01-07T15:01:23;5.80;;;5.30;;
8683;SDS011;4379;59.744;18.206;2024-01-07T15:03:51;5.93;;;4.93;;
8683;SDS011;4379;59.744;18.206;2024-01-07T15:06:18;5.17;;;4.67;;
8683;SDS011;4379;59.744;18.206;2024-01-07T15:08:45;6.63;;;5.67;;
8683;SDS011;4379;59.744;18.206;2024-01-07T15:11:14;5.60;;;5.03;;
8683;SDS011;4379;59.744;18.206;2024-01-07T15:13:41;5.57;;;5.03;;
8683;SDS011;4379;59.744;18.206;2024-01-07T15:16:10;5.80;;;5.20;;
8683;SDS011;4379;59.744;18.206;2024-01-07T15:18:37;5.87;;;5.27;;